createdAt,value
2023-03-25T00:02:23.390Z,52.97
2023-03-25T00:04:51.702Z,43.13
2023-03-25T00:07:20.040Z,42.17
2023-03-25T00:09:47.866Z,45.92
2023-03-25T00:12:16.959Z,47.10
2023-03-25T00:14:54.599Z,48.25
2023-03-25T00:17:23.557Z,42.58
2023-03-25T00:19:52.810Z,46.00
2023-03-25T00:22:19.501Z,41.90
2023-03-25T00:24:46.439Z,42.65
2023-03-25T00:27:14.442Z,40.47
2023-03-25T00:29:42.298Z,42.88
2023-03-25T00:32:09.251Z,43.92
2023-03-25T00:34:41.971Z,43.70
2023-03-25T00:37:09.473Z,44.78
2023-03-25T00:39:38.051Z,45.47
2023-03-25T00:42:05.274Z,48.63
2023-03-25T00:44:32.529Z,45.75
2023-03-25T00:46:59.258Z,48.60
2023-03-25T00:49:28.606Z,48.28
2023-03-25T00:51:56.558Z,47.70
2023-03-25T00:54:24.311Z,50.33
2023-03-25T00:56:52.852Z,52.28
2023-03-25T00:59:19.800Z,57.35
2023-03-25T01:01:46.398Z,65.40
2023-03-25T01:04:13.199Z,66.43
2023-03-25T01:06:44.347Z,69.15
2023-03-25T01:09:14.076Z,78.55
2023-03-25T01:11:44.029Z,86.53
2023-03-25T01:14:17.124Z,92.20
2023-03-25T01:16:44.696Z,106.88
2023-03-25T01:19:12.258Z,104.50
2023-03-25T01:21:38.825Z,120.40
2023-03-25T01:24:07.199Z,122.57
2023-03-25T01:26:34.414Z,129.25
2023-03-25T01:29:00.950Z,122.32
2023-03-25T01:31:30.294Z,126.50
2023-03-25T01:33:57.967Z,122.90
2023-03-25T01:36:29.530Z,123.85
2023-03-25T01:38:58.423Z,123.10
2023-03-25T01:41:33.131Z,126.13
2023-03-25T01:44:08.468Z,138.98
2023-03-25T01:46:38.063Z,145.40
2023-03-25T01:49:08.877Z,159.00
2023-03-25T01:51:40.570Z,166.88
2023-03-25T01:54:07.932Z,160.55
2023-03-25T01:56:39.969Z,165.45
2023-03-25T01:59:08.278Z,179.75
2023-03-25T02:01:36.846Z,198.77
2023-03-25T02:04:10.078Z,186.05
2023-03-25T02:06:45.855Z,165.35
2023-03-25T02:09:16.946Z,168.05
2023-03-25T02:11:43.621Z,167.23
2023-03-25T02:14:14.414Z,127.07
2023-03-25T02:17:12.060Z,109.15
2023-03-25T02:20:16.174Z,98.80
2023-03-25T02:23:16.856Z,76.50
2023-03-25T02:26:14.399Z,84.63
2023-03-25T02:28:50.712Z,36.50
2023-03-25T02:31:56.433Z,37.50
2023-03-25T02:34:42.504Z,29.38
2023-03-25T02:37:29.282Z,25.50
2023-03-25T02:40:08.126Z,24.58
2023-03-25T02:42:58.007Z,22.95
2023-03-25T02:45:37.846Z,27.60
2023-03-25T02:48:11.957Z,30.50
2023-03-25T02:50:44.065Z,30.92
2023-03-25T02:53:16.828Z,33.22
2023-03-25T02:55:48.009Z,39.03
2023-03-25T02:58:18.265Z,41.42
2023-03-25T03:00:46.324Z,57.50
2023-03-25T03:03:12.958Z,50.08
2023-03-25T03:05:49.758Z,52.80
2023-03-25T03:08:31.351Z,51.72
2023-03-25T03:11:20.479Z,53.72
2023-03-25T03:14:06.012Z,62.80
2023-03-25T03:17:00.745Z,65.57
2023-03-25T03:19:58.253Z,72.75
2023-03-25T03:23:02.098Z,78.22
2023-03-25T03:25:40.754Z,93.63
2023-03-25T03:28:12.974Z,108.15
2023-03-25T03:31:06.997Z,123.07
2023-03-25T03:33:46.894Z,124.43
2023-03-25T03:36:20.396Z,150.00
2023-03-25T03:38:51.317Z,134.90
2023-03-25T03:41:24.223Z,134.70
2023-03-25T03:43:56.951Z,137.45
2023-03-25T03:46:34.869Z,125.93
2023-03-25T03:49:05.583Z,115.07
2023-03-25T03:51:39.139Z,108.68
2023-03-25T03:54:13.939Z,107.57
2023-03-25T03:56:46.762Z,85.63
2023-03-25T03:59:22.614Z,91.45
2023-03-25T04:01:55.804Z,80.68
2023-03-25T04:04:27.039Z,63.80
2023-03-25T04:07:04.617Z,45.78
2023-03-25T04:10:02.844Z,39.92
2023-03-25T04:12:33.898Z,37.40
2023-03-25T04:15:03.243Z,37.78
2023-03-25T04:17:30.164Z,36.40
2023-03-25T04:19:57.275Z,35.30
2023-03-25T04:22:24.674Z,35.28
2023-03-25T04:24:51.889Z,36.05
2023-03-25T04:27:24.525Z,35.83
2023-03-25T04:29:52.148Z,37.45
2023-03-25T04:32:18.982Z,38.47
2023-03-25T04:34:46.964Z,36.75
2023-03-25T04:37:14.108Z,36.38
2023-03-25T04:39:40.834Z,36.50
2023-03-25T04:42:08.867Z,35.92
2023-03-25T04:44:39.971Z,36.00
2023-03-25T04:47:14.752Z,36.05
2023-03-25T04:49:45.191Z,37.17
2023-03-25T04:52:12.057Z,36.17
2023-03-25T04:54:38.659Z,37.95
2023-03-25T04:57:05.279Z,38.00
2023-03-25T04:59:31.892Z,37.97
2023-03-25T05:01:58.457Z,37.95
2023-03-25T05:04:25.099Z,36.65
2023-03-25T05:06:51.751Z,36.47
2023-03-25T05:09:22.128Z,36.25
2023-03-25T05:11:50.637Z,36.53
2023-03-25T05:14:19.514Z,34.83
2023-03-25T05:16:46.744Z,34.28
2023-03-25T05:19:14.800Z,34.58
2023-03-25T05:21:42.331Z,34.25
2023-03-25T05:24:11.206Z,35.15
2023-03-25T05:26:39.847Z,37.47
2023-03-25T05:29:14.345Z,38.20
2023-03-25T05:34:08.582Z,36.05
2023-03-25T05:36:35.857Z,41.45
2023-03-25T05:39:04.189Z,43.22
2023-03-25T05:41:33.653Z,45.65
2023-03-25T05:44:00.919Z,44.13
2023-03-25T05:46:32.108Z,48.35
2023-03-25T05:49:00.956Z,44.42
2023-03-25T05:51:33.957Z,47.22
2023-03-25T05:54:01.701Z,41.95
2023-03-25T05:56:29.685Z,42.25
2023-03-25T05:58:57.689Z,37.60
2023-03-25T06:01:32.512Z,36.53
2023-03-25T06:04:03.728Z,34.70
2023-03-25T06:06:32.213Z,36.28
2023-03-25T06:08:59.250Z,38.55
2023-03-25T06:11:25.889Z,37.53
2023-03-25T06:13:52.761Z,36.88
2023-03-25T06:16:27.637Z,37.85
2023-03-25T06:18:59.595Z,35.38
2023-03-25T06:21:32.949Z,35.35
2023-03-25T06:24:01.365Z,33.28
2023-03-25T06:26:28.183Z,35.55
2023-03-25T06:28:54.889Z,32.28
2023-03-25T06:31:27.751Z,32.63
2023-03-25T06:33:56.058Z,33.80
2023-03-25T06:36:25.308Z,32.53
2023-03-25T06:38:52.143Z,32.15
2023-03-25T06:41:25.726Z,30.50
2023-03-25T06:43:52.571Z,31.90
2023-03-25T06:46:19.217Z,32.80
2023-03-25T06:48:47.273Z,32.03
2023-03-25T06:51:13.805Z,32.40
2023-03-25T06:53:40.521Z,31.45
2023-03-25T06:56:07.497Z,30.85
2023-03-25T06:58:37.297Z,30.90
2023-03-25T07:01:07.545Z,32.38
2023-03-25T07:03:36.466Z,31.48
2023-03-25T07:06:04.518Z,30.77
2023-03-25T07:08:31.749Z,31.67
2023-03-25T07:11:02.778Z,33.70
2023-03-25T07:13:31.185Z,32.28
2023-03-25T07:15:58.730Z,31.17
2023-03-25T07:18:25.583Z,32.00
2023-03-25T07:20:52.166Z,35.92
2023-03-25T07:23:18.700Z,37.30
2023-03-25T07:25:45.457Z,37.60
2023-03-25T07:28:12.076Z,36.63
2023-03-25T07:30:38.781Z,36.88
2023-03-25T07:33:05.391Z,38.97
2023-03-25T07:35:32.078Z,40.00
2023-03-25T07:37:58.678Z,41.28
2023-03-25T07:40:25.398Z,44.30
2023-03-25T07:42:51.949Z,50.47
2023-03-25T07:45:18.509Z,52.58
2023-03-25T07:47:50.258Z,54.22
2023-03-25T07:50:24.418Z,53.70
2023-03-25T07:52:51.835Z,64.93
2023-03-25T07:55:18.411Z,66.93
2023-03-25T07:57:45.623Z,72.32
2023-03-25T08:00:12.963Z,56.72
2023-03-25T08:02:39.770Z,80.68
2023-03-25T08:05:07.016Z,104.38
2023-03-25T08:07:34.121Z,55.42
2023-03-25T08:10:00.730Z,79.07
2023-03-25T08:12:27.421Z,59.85
2023-03-25T08:14:53.951Z,113.20
2023-03-25T08:17:23.136Z,84.65
2023-03-25T08:19:49.946Z,46.97
2023-03-25T08:22:16.492Z,31.65
2023-03-25T08:24:43.043Z,30.98
2023-03-25T08:27:15.233Z,27.48
2023-03-25T08:29:43.886Z,23.70
2023-03-25T08:32:10.715Z,23.20
2023-03-25T08:34:39.941Z,24.10
2023-03-25T08:37:11.188Z,21.25
2023-03-25T08:39:40.196Z,22.38
2023-03-25T08:42:07.911Z,21.73
2023-03-25T08:44:35.518Z,22.80
2023-03-25T08:47:02.421Z,22.15
2023-03-25T08:49:29.121Z,19.70
2023-03-25T08:51:57.949Z,19.15
2023-03-25T08:54:31.060Z,18.25
2023-03-25T08:56:57.648Z,17.40
2023-03-25T08:59:24.183Z,16.58
2023-03-25T09:01:50.791Z,16.83
2023-03-25T09:04:17.406Z,17.00
2023-03-25T09:06:47.720Z,16.10
2023-03-25T09:09:16.494Z,18.48
2023-03-25T09:11:43.378Z,15.48
2023-03-25T09:14:10.273Z,16.17
2023-03-25T09:16:36.808Z,16.90
2023-03-25T09:19:03.573Z,15.65
2023-03-25T09:21:30.627Z,15.90
2023-03-25T09:23:57.247Z,16.33
2023-03-25T09:26:26.092Z,15.52
2023-03-25T09:28:55.529Z,16.70
2023-03-25T09:31:23.917Z,16.92
2023-03-25T09:33:50.616Z,15.25
2023-03-25T09:36:17.206Z,16.58
2023-03-25T09:38:43.823Z,15.57
2023-03-25T09:41:51.119Z,15.90
2023-03-25T09:44:45.027Z,17.05
2023-03-25T09:47:15.130Z,16.67
2023-03-25T09:49:46.069Z,17.58
2023-03-25T09:52:20.682Z,18.08
2023-03-25T09:54:52.400Z,18.77
2023-03-25T09:57:27.138Z,18.63
2023-03-25T09:59:56.398Z,21.50
2023-03-25T10:02:43.772Z,20.98
2023-03-25T10:05:16.151Z,20.80
2023-03-25T10:08:19.744Z,21.80
2023-03-25T10:11:07.995Z,22.58
2023-03-25T10:13:48.701Z,23.05
2023-03-25T10:16:33.984Z,24.02
2023-03-25T10:19:27.581Z,26.15
2023-03-25T10:22:04.703Z,26.48
2023-03-25T10:24:55.605Z,26.33
2023-03-25T10:27:39.852Z,26.77
2023-03-25T10:30:21.435Z,31.15
2023-03-25T10:32:59.626Z,32.22
2023-03-25T10:35:29.683Z,31.73
2023-03-25T10:38:08.715Z,30.25
2023-03-25T10:40:49.959Z,27.02
2023-03-25T10:43:34.309Z,29.42
2023-03-25T10:46:06.141Z,21.77
2023-03-25T10:48:33.756Z,21.02
2023-03-25T10:51:03.532Z,21.45
2023-03-25T10:53:30.646Z,24.25
2023-03-25T10:56:03.613Z,26.73
2023-03-25T10:58:31.739Z,27.92
2023-03-25T11:01:01.578Z,27.95
2023-03-25T11:03:34.530Z,27.38
2023-03-25T11:06:01.695Z,27.95
2023-03-25T11:08:28.356Z,28.63
2023-03-25T11:11:00.419Z,25.67
2023-03-25T11:13:29.579Z,23.02
2023-03-25T11:16:02.565Z,21.48
2023-03-25T11:18:40.664Z,20.65
2023-03-25T11:21:13.522Z,21.70
2023-03-25T11:23:46.457Z,20.25
2023-03-25T11:26:23.705Z,20.20
2023-03-25T11:29:14.138Z,22.88
2023-03-25T11:31:42.678Z,20.20
2023-03-25T11:34:12.314Z,23.15
2023-03-25T11:36:57.924Z,19.98
2023-03-25T11:39:30.189Z,20.60
2023-03-25T11:41:58.782Z,18.67
2023-03-25T11:44:31.147Z,18.17
2023-03-25T11:47:02.645Z,17.95
2023-03-25T11:49:35.270Z,16.02
2023-03-25T11:52:08.125Z,17.40
2023-03-25T11:54:36.897Z,15.80
2023-03-25T11:57:07.416Z,18.70
2023-03-25T11:59:43.059Z,16.77
2023-03-25T12:02:24.690Z,16.77
2023-03-25T12:05:02.933Z,21.33
2023-03-25T12:07:30.045Z,16.35
2023-03-25T12:09:59.193Z,14.43
2023-03-25T12:12:42.532Z,14.82
2023-03-25T12:15:20.536Z,15.70
2023-03-25T12:18:18.193Z,14.77
2023-03-25T12:20:56.631Z,16.38
2023-03-25T12:23:48.827Z,14.90
2023-03-25T12:26:19.949Z,14.98
2023-03-25T12:29:04.813Z,15.60
2023-03-25T12:31:39.946Z,15.40
2023-03-25T12:34:20.675Z,14.90
2023-03-25T12:36:57.103Z,16.27
2023-03-25T12:39:42.106Z,16.35
2023-03-25T12:42:19.249Z,16.55
2023-03-25T12:44:51.410Z,18.02
2023-03-25T12:47:29.245Z,16.95
2023-03-25T12:50:35.344Z,17.60
2023-03-25T12:53:02.017Z,15.98
2023-03-25T12:56:14.207Z,15.85
2023-03-25T12:58:46.881Z,14.55
2023-03-25T13:01:13.549Z,14.18
2023-03-25T13:04:00.526Z,14.25
2023-03-25T13:06:59.194Z,13.95
2023-03-25T13:10:03.831Z,13.30
2023-03-25T13:12:38.129Z,13.20
2023-03-25T13:18:12.085Z,14.63
2023-03-25T13:20:49.680Z,13.82
2023-03-25T13:23:21.921Z,13.90
2023-03-25T13:26:06.413Z,14.02
2023-03-25T13:28:40.243Z,14.38
2023-03-25T13:31:12.951Z,15.35
2023-03-25T13:33:45.713Z,14.20
2023-03-25T13:36:34.299Z,15.43
2023-03-25T13:39:12.110Z,14.70
2023-03-25T13:41:58.887Z,14.45
2023-03-25T13:44:25.449Z,15.10
2023-03-25T13:47:12.386Z,13.55
2023-03-25T13:49:47.249Z,14.70
2023-03-25T13:52:14.880Z,14.13
2023-03-25T13:54:48.430Z,15.38
2023-03-25T13:57:18.280Z,16.77
2023-03-25T13:59:53.669Z,13.93
2023-03-25T14:02:50.055Z,14.55
2023-03-25T14:05:41.293Z,13.95
2023-03-25T14:08:17.526Z,13.27
2023-03-25T14:10:51.244Z,13.32
2023-03-25T14:13:26.655Z,13.20
2023-03-25T14:15:59.898Z,14.32
2023-03-25T14:18:29.005Z,13.30
2023-03-25T14:20:57.972Z,13.65
2023-03-25T14:23:32.061Z,12.82
2023-03-25T14:26:02.905Z,13.27
2023-03-25T14:28:44.391Z,13.00
2023-03-25T14:31:14.059Z,12.68
2023-03-25T14:34:06.748Z,12.40
2023-03-25T14:36:39.464Z,13.63
2023-03-25T14:39:31.647Z,13.75
2023-03-25T14:42:02.537Z,13.80
2023-03-25T14:44:34.467Z,14.27
2023-03-25T14:47:17.092Z,13.00
2023-03-25T14:50:01.615Z,13.55
2023-03-25T14:52:39.368Z,13.98
2023-03-25T14:55:15.243Z,13.43
2023-03-25T14:57:43.538Z,13.13
2023-03-25T15:00:20.974Z,14.80
2023-03-25T15:02:58.569Z,13.75
2023-03-25T15:05:29.379Z,14.18
2023-03-25T15:08:06.616Z,13.77
2023-03-25T15:10:38.289Z,14.63
2023-03-25T15:13:21.566Z,13.60
2023-03-25T15:15:50.315Z,13.88
2023-03-25T15:18:31.943Z,13.20
2023-03-25T15:21:12.547Z,14.68
2023-03-25T15:23:51.722Z,13.48
2023-03-25T15:26:33.187Z,13.65
2023-03-25T15:29:14.694Z,14.68
2023-03-25T15:31:48.396Z,14.80
2023-03-25T15:34:48.880Z,14.70
2023-03-25T15:37:54.911Z,14.65
2023-03-25T15:40:42.561Z,14.35
2023-03-25T15:43:30.529Z,15.57
2023-03-25T15:46:08.504Z,15.63
2023-03-25T15:48:35.022Z,14.65
2023-03-25T15:51:46.934Z,14.10
2023-03-25T15:54:37.895Z,14.13
2023-03-25T15:57:17.191Z,14.40
2023-03-25T16:00:22.163Z,14.52
2023-03-25T16:02:51.339Z,14.60
2023-03-25T16:05:19.914Z,15.02
2023-03-25T16:07:47.143Z,14.38
2023-03-25T16:10:19.210Z,14.00
2023-03-25T16:12:48.773Z,15.32
2023-03-25T16:15:27.146Z,14.07
2023-03-25T16:17:54.467Z,14.68
2023-03-25T16:20:27.675Z,14.40
2023-03-25T16:22:56.450Z,13.25
2023-03-25T16:25:27.964Z,13.38
2023-03-25T16:27:58.077Z,13.73
2023-03-25T16:30:39.861Z,13.43
2023-03-25T16:33:10.564Z,13.30
2023-03-25T16:35:55.143Z,14.40
2023-03-25T16:38:25.401Z,13.50
2023-03-25T16:40:59.546Z,13.50
2023-03-25T16:43:27.530Z,15.15
2023-03-25T16:45:58.620Z,14.48
2023-03-25T16:48:32.222Z,13.23
2023-03-25T16:51:05.665Z,12.53
2023-03-25T16:53:35.153Z,13.88
2023-03-25T16:56:22.834Z,14.38
2023-03-25T16:59:01.446Z,14.32
2023-03-25T17:01:29.461Z,14.60
2023-03-25T17:04:10.466Z,14.43
2023-03-25T17:06:40.042Z,14.68
2023-03-25T17:09:34.043Z,14.80
2023-03-25T17:12:06.447Z,14.82
2023-03-25T17:14:37.608Z,15.25
2023-03-25T17:17:14.463Z,15.52
2023-03-25T17:19:46.325Z,16.38
2023-03-25T17:22:20.408Z,14.95
2023-03-25T17:24:58.378Z,16.23
2023-03-25T17:27:37.109Z,15.80
2023-03-25T17:30:43.079Z,15.10
2023-03-25T17:33:11.729Z,14.93
2023-03-25T17:35:39.969Z,15.02
2023-03-25T17:38:09.006Z,16.85
2023-03-25T17:40:35.688Z,47.88
2023-03-25T17:43:02.357Z,32.30
2023-03-25T17:45:29.531Z,19.63
2023-03-25T17:47:56.772Z,23.52
2023-03-25T17:50:27.529Z,23.55
2023-03-25T17:52:55.086Z,18.77
2023-03-25T17:55:21.967Z,18.45
2023-03-25T17:57:49.879Z,17.70
2023-03-25T18:00:18.609Z,18.42
2023-03-25T18:02:46.713Z,18.08
2023-03-25T18:05:14.722Z,17.83
2023-03-25T18:07:41.497Z,18.50
2023-03-25T18:10:17.036Z,17.65
2023-03-25T18:12:44.647Z,17.92
2023-03-25T18:15:11.654Z,17.95
2023-03-25T18:17:38.580Z,17.70
2023-03-25T18:20:20.017Z,18.95
2023-03-25T18:22:46.774Z,17.95
2023-03-25T18:25:14.281Z,18.45
2023-03-25T18:27:44.237Z,19.15
2023-03-25T18:30:18.861Z,22.48
2023-03-25T18:32:45.904Z,19.65
2023-03-25T18:35:12.493Z,23.35
2023-03-25T18:37:39.113Z,22.17
2023-03-25T18:40:16.733Z,21.92
2023-03-25T18:42:43.377Z,26.05
2023-03-25T18:45:11.374Z,24.83
2023-03-25T18:47:38.114Z,25.77
2023-03-25T18:50:17.745Z,26.13
2023-03-25T18:52:45.550Z,23.70
2023-03-25T18:55:13.321Z,25.67
2023-03-25T18:57:40.119Z,25.02
2023-03-25T19:00:14.933Z,25.75
2023-03-25T19:02:41.576Z,25.10
2023-03-25T19:05:08.532Z,23.98
2023-03-25T19:07:35.118Z,24.58
2023-03-25T19:10:01.677Z,25.13
2023-03-25T19:12:28.223Z,23.58
2023-03-25T19:14:54.824Z,24.02
2023-03-25T19:17:21.701Z,24.13
2023-03-25T19:19:49.629Z,23.17
2023-03-25T19:22:16.359Z,25.27
2023-03-25T19:24:43.676Z,24.92
2023-03-25T19:27:10.286Z,24.38
2023-03-25T19:29:38.011Z,24.25
2023-03-25T19:32:04.757Z,26.65
2023-03-25T19:34:31.440Z,31.55
2023-03-25T19:37:02.743Z,32.88
2023-03-25T19:39:29.759Z,35.65
2023-03-25T19:41:56.377Z,36.28
2023-03-25T19:44:23.214Z,37.35
2023-03-25T19:46:49.842Z,36.65
2023-03-25T19:49:22.993Z,37.35
2023-03-25T19:51:59.365Z,34.63
2023-03-25T19:54:25.960Z,33.05
2023-03-25T19:56:52.620Z,34.88
2023-03-25T19:59:19.212Z,34.10
2023-03-25T20:01:45.875Z,32.38
2023-03-25T20:04:14.481Z,26.10
2023-03-25T20:06:42.045Z,22.20
2023-03-25T20:09:10.776Z,21.23
2023-03-25T20:11:37.373Z,19.90
2023-03-25T20:14:06.389Z,18.35
2023-03-25T20:16:34.885Z,19.45
2023-03-25T20:19:02.396Z,19.67
2023-03-25T20:21:29.010Z,18.55
2023-03-25T20:23:55.774Z,18.77
2023-03-25T20:26:22.556Z,18.27
2023-03-25T20:28:49.456Z,18.95
2023-03-25T20:31:18.745Z,20.30
2023-03-25T20:33:46.373Z,22.88
2023-03-25T20:36:13.471Z,22.08
2023-03-25T20:38:47.423Z,21.98
2023-03-25T20:41:21.609Z,24.77
2023-03-25T20:43:48.173Z,23.10
2023-03-25T20:46:15.496Z,26.20
2023-03-25T20:48:42.363Z,23.08
2023-03-25T20:51:12.809Z,22.98
2023-03-25T20:53:41.757Z,21.30
2023-03-25T20:56:08.311Z,21.20
2023-03-25T20:58:34.876Z,21.55
2023-03-25T21:01:02.716Z,21.88
2023-03-25T21:03:30.035Z,21.60
2023-03-25T21:05:59.002Z,23.05
2023-03-25T21:08:30.325Z,21.83
2023-03-25T21:10:58.333Z,23.20
2023-03-25T21:13:31.513Z,22.73
2023-03-25T21:16:01.492Z,24.77
2023-03-25T21:18:29.102Z,24.85
2023-03-25T21:20:58.268Z,26.75
2023-03-25T21:23:31.942Z,28.77
2023-03-25T21:26:03.416Z,31.30
2023-03-25T21:28:31.994Z,33.25
2023-03-25T21:31:08.124Z,35.63
2023-03-25T21:33:39.282Z,37.05
2023-03-25T21:36:08.799Z,41.40
2023-03-25T21:38:36.498Z,40.65
2023-03-25T21:41:06.177Z,44.42
2023-03-25T21:43:34.460Z,44.55
2023-03-25T21:46:05.513Z,46.63
2023-03-25T21:48:34.394Z,50.38
2023-03-25T21:51:01.495Z,50.05
2023-03-25T21:53:32.573Z,51.10
2023-03-25T21:56:04.218Z,51.53
2023-03-25T21:58:32.940Z,52.42
2023-03-25T22:01:05.389Z,53.45
2023-03-25T22:03:37.179Z,53.28
2023-03-25T22:06:16.585Z,52.13
2023-03-25T22:08:43.381Z,50.63
2023-03-25T22:11:15.743Z,53.40
2023-03-25T22:13:43.373Z,53.28
2023-03-25T22:16:12.285Z,52.42
2023-03-25T22:18:39.912Z,54.38
2023-03-25T22:21:30.261Z,54.08
2023-03-25T22:24:00.306Z,50.40
2023-03-25T22:26:28.724Z,53.38
2023-03-25T22:28:57.028Z,54.08
2023-03-25T22:31:30.847Z,55.38
2023-03-25T22:34:03.183Z,56.92
2023-03-25T22:36:34.324Z,54.20
2023-03-25T22:39:02.829Z,55.33
2023-03-25T22:41:29.421Z,73.28
2023-03-25T22:43:56.404Z,57.88
2023-03-25T22:46:23.560Z,56.10
2023-03-25T22:48:50.574Z,60.67
2023-03-25T22:51:19.512Z,61.72
2023-03-25T22:53:46.267Z,62.13
2023-03-25T22:56:13.554Z,63.70
2023-03-25T22:58:40.846Z,61.83
2023-03-25T23:01:25.070Z,62.90
2023-03-25T23:03:53.770Z,61.47
2023-03-25T23:06:21.559Z,62.65
2023-03-25T23:08:48.957Z,65.38
2023-03-25T23:11:17.300Z,67.28
2023-03-25T23:13:46.741Z,70.15
2023-03-25T23:16:16.007Z,66.82
2023-03-25T23:18:42.871Z,66.88
2023-03-25T23:21:14.884Z,66.63
2023-03-25T23:23:52.217Z,68.20
2023-03-25T23:26:24.835Z,69.68
2023-03-25T23:28:53.014Z,69.65
2023-03-25T23:31:22.766Z,73.97
2023-03-25T23:33:51.097Z,82.68
2023-03-25T23:36:19.813Z,74.78
2023-03-25T23:38:46.934Z,79.38
2023-03-25T23:41:15.972Z,83.47
2023-03-25T23:43:43.440Z,72.18
2023-03-25T23:46:11.751Z,74.78
2023-03-25T23:48:42.498Z,74.70
2023-03-25T23:51:11.470Z,73.22
2023-03-25T23:53:39.472Z,68.68
2023-03-25T23:56:07.449Z,97.30
2023-03-25T23:58:34.949Z,66.38
